createdAt,value
2023-09-05T00:02:49.334Z,19.70
2023-09-05T00:07:52.249Z,19.03
2023-09-05T00:12:54.927Z,19.22
2023-09-05T00:17:59.043Z,19.32
2023-09-05T00:23:09.924Z,18.98
2023-09-05T00:28:14.622Z,19.11
2023-09-05T00:33:18.914Z,18.31
2023-09-05T00:38:23.822Z,19.39
2023-09-05T00:43:27.895Z,18.99
2023-09-05T00:48:38.459Z,18.46
2023-09-05T00:53:41.687Z,18.75
2023-09-05T00:58:46.749Z,18.76
2023-09-05T01:03:52.598Z,19.26
2023-09-05T01:09:10.005Z,19.03
2023-09-05T01:14:19.373Z,18.98
2023-09-05T01:19:29.537Z,18.94
2023-09-05T01:24:36.840Z,18.38
2023-09-05T01:29:40.628Z,18.78
2023-09-05T01:34:47.264Z,18.77
2023-09-05T01:39:51.706Z,18.59
2023-09-05T01:44:55.020Z,18.50
2023-09-05T01:49:57.784Z,18.39
2023-09-05T01:55:02.067Z,18.41
2023-09-05T02:00:07.008Z,18.39
2023-09-05T02:05:16.554Z,18.42
2023-09-05T02:10:20.636Z,18.18
2023-09-05T02:15:23.390Z,18.22
2023-09-05T02:20:27.380Z,18.24
2023-09-05T02:25:37.544Z,18.33
2023-09-05T02:30:44.900Z,18.40
2023-09-05T02:35:47.731Z,18.37
2023-09-05T02:40:53.100Z,18.29
2023-09-05T02:45:58.066Z,18.27
2023-09-05T02:51:05.696Z,18.25
2023-09-05T02:56:12.840Z,18.32
2023-09-05T03:01:17.282Z,18.27
2023-09-05T03:06:20.036Z,18.33
2023-09-05T03:11:26.683Z,18.31
2023-09-05T03:16:30.433Z,17.89
2023-09-05T03:21:33.662Z,18.25
2023-09-05T03:26:38.031Z,18.24
2023-09-05T03:31:40.915Z,17.89
2023-09-05T03:36:46.630Z,17.99
2023-09-05T03:41:50.739Z,17.85
2023-09-05T03:46:53.479Z,17.65
2023-09-05T03:51:59.469Z,18.07
2023-09-05T03:57:03.866Z,17.84
2023-09-05T04:02:08.975Z,17.98
2023-09-05T04:07:15.605Z,17.93
2023-09-05T04:12:21.004Z,17.90
2023-09-05T04:17:25.396Z,17.92
2023-09-05T04:22:29.153Z,17.75
2023-09-05T04:27:33.219Z,17.48
2023-09-05T04:32:38.431Z,17.88
2023-09-05T04:37:41.831Z,17.85
2023-09-05T04:42:46.085Z,17.82
2023-09-05T04:47:48.888Z,17.76
2023-09-05T04:52:52.789Z,17.50
2023-09-05T04:57:56.857Z,17.73
2023-09-05T05:03:00.641Z,17.28
2023-09-05T05:08:03.408Z,17.14
2023-09-05T05:13:07.473Z,17.53
2023-09-05T05:18:10.379Z,17.73
2023-09-05T05:23:14.250Z,17.48
2023-09-05T05:28:18.503Z,17.88
2023-09-05T05:33:21.301Z,17.65
2023-09-05T05:38:24.552Z,18.05
2023-09-05T05:43:30.425Z,18.15
2023-09-05T05:48:35.951Z,18.23
2023-09-05T05:53:39.219Z,17.97
2023-09-05T05:58:46.515Z,18.41
2023-09-05T06:03:49.441Z,18.68
2023-09-05T06:08:52.390Z,18.81
2023-09-05T06:13:56.518Z,18.94
2023-09-05T06:19:02.368Z,19.05
2023-09-05T06:24:05.721Z,19.17
2023-09-05T06:29:10.878Z,19.12
2023-09-05T06:34:20.508Z,19.39
2023-09-05T06:39:23.235Z,19.43
2023-09-05T06:44:30.433Z,19.55
2023-09-05T06:49:33.559Z,19.66
2023-09-05T06:54:36.657Z,19.67
2023-09-05T06:59:40.769Z,19.91
2023-09-05T07:04:43.503Z,20.05
2023-09-05T07:09:47.564Z,20.21
2023-09-05T07:14:51.958Z,20.38
2023-09-05T07:19:54.653Z,20.36
2023-09-05T07:25:00.350Z,20.40
2023-09-05T07:30:04.848Z,21.00
2023-09-05T07:35:07.852Z,21.27
2023-09-05T07:40:12.620Z,21.44
2023-09-05T07:45:16.920Z,21.53
2023-09-05T07:50:20.186Z,21.58
2023-09-05T07:55:23.581Z,21.63
2023-09-05T08:00:28.088Z,21.85
2023-09-05T08:05:32.453Z,22.03
2023-09-05T08:10:35.872Z,22.16
2023-09-05T08:15:40.204Z,22.20
2023-09-05T08:20:44.017Z,22.39
2023-09-05T08:25:51.957Z,22.32
2023-09-05T08:31:15.728Z,22.52
2023-09-05T08:36:20.758Z,22.60
2023-09-05T08:41:23.600Z,22.52
2023-09-05T08:46:28.500Z,22.80
2023-09-05T08:51:34.192Z,22.82
2023-09-05T08:56:36.911Z,23.01
2023-09-05T09:01:45.086Z,23.08
2023-09-05T09:06:55.978Z,23.15
2023-09-05T09:12:01.593Z,23.33
2023-09-05T09:17:07.665Z,23.36
2023-09-05T09:22:10.672Z,23.57
2023-09-05T09:27:13.951Z,23.58
2023-09-05T09:32:22.079Z,23.77
2023-09-05T09:37:26.693Z,23.89
2023-09-05T09:42:30.068Z,24.11
2023-09-05T09:47:36.312Z,24.12
2023-09-05T09:52:45.083Z,24.00
2023-09-05T09:57:57.252Z,23.84
2023-09-05T10:03:05.259Z,24.14
2023-09-05T10:08:08.375Z,24.39
2023-09-05T10:13:11.941Z,24.51
2023-09-05T10:18:18.646Z,24.46
2023-09-05T10:23:21.575Z,24.52
2023-09-05T10:28:29.009Z,24.16
2023-09-05T10:33:38.712Z,24.55
2023-09-05T10:38:41.533Z,24.87
2023-09-05T10:43:56.110Z,24.77
2023-09-05T10:49:14.108Z,24.90
2023-09-05T10:54:30.047Z,24.57
2023-09-05T10:59:32.858Z,25.05
2023-09-05T11:04:40.034Z,25.26
2023-09-05T11:09:51.195Z,24.91
2023-09-05T11:14:55.425Z,24.79
2023-09-05T11:19:59.691Z,24.74
2023-09-05T11:25:05.189Z,24.59
2023-09-05T11:30:11.182Z,24.41
2023-09-05T11:35:15.679Z,24.20
2023-09-05T11:40:23.919Z,24.75
2023-09-05T11:45:26.971Z,25.07
2023-09-05T11:50:32.948Z,25.22
2023-09-05T11:55:36.010Z,25.51
2023-09-05T12:00:45.549Z,25.89
2023-09-05T12:05:52.618Z,26.06
2023-09-05T12:11:00.867Z,26.37
2023-09-05T12:16:04.634Z,26.66
2023-09-05T12:21:14.534Z,26.88
2023-09-05T12:26:17.480Z,26.97
2023-09-05T12:31:22.275Z,27.15
2023-09-05T12:36:30.614Z,26.99
2023-09-05T12:41:35.822Z,27.40
2023-09-05T12:46:39.147Z,27.57
2023-09-05T12:51:46.648Z,27.76
2023-09-05T12:57:31.342Z,26.28
2023-09-05T13:02:48.713Z,28.19
2023-09-05T13:07:53.417Z,28.35
2023-09-05T13:13:05.508Z,28.65
2023-09-05T13:18:09.239Z,28.94
2023-09-05T13:23:22.999Z,29.14
2023-09-05T13:28:28.911Z,29.13
2023-09-05T13:33:43.573Z,29.23
2023-09-05T13:38:49.348Z,29.72
2023-09-05T13:43:52.780Z,29.78
2023-09-05T13:48:55.852Z,30.12
2023-09-05T13:54:00.753Z,30.43
2023-09-05T13:59:03.702Z,30.58
2023-09-05T14:04:12.772Z,30.27
2023-09-05T14:09:19.491Z,30.27
2023-09-05T14:14:22.268Z,30.32
2023-09-05T14:19:26.397Z,30.14
2023-09-05T14:24:33.367Z,29.86
2023-09-05T14:29:38.135Z,29.56
2023-09-05T14:35:03.425Z,29.57
2023-09-05T14:40:13.787Z,29.36
2023-09-05T14:45:16.671Z,29.20
2023-09-05T14:50:19.971Z,28.98
2023-09-05T14:55:26.832Z,28.82
2023-09-05T15:00:30.577Z,28.45
2023-09-05T15:05:33.529Z,27.94
2023-09-05T15:10:38.607Z,27.90
2023-09-05T15:15:41.557Z,27.82
2023-09-05T15:20:51.512Z,26.49
2023-09-05T15:25:58.296Z,26.77
2023-09-05T15:31:06.758Z,27.06
2023-09-05T15:36:10.314Z,27.02
2023-09-05T15:41:16.931Z,27.25
2023-09-05T15:46:22.752Z,27.18
2023-09-05T15:51:26.343Z,27.08
2023-09-05T15:56:31.073Z,27.03
2023-09-05T16:01:34.163Z,26.99
2023-09-05T16:06:37.741Z,26.95
2023-09-05T16:11:43.178Z,26.88
2023-09-05T16:16:54.232Z,25.94
2023-09-05T16:21:57.020Z,25.81
2023-09-05T16:27:03.485Z,26.44
2023-09-05T16:32:07.644Z,26.50
2023-09-05T16:37:19.429Z,26.30
2023-09-05T16:42:26.402Z,26.57
2023-09-05T16:47:30.211Z,26.36
2023-09-05T16:52:32.913Z,26.52
2023-09-05T16:57:37.287Z,26.37
2023-09-05T17:02:42.846Z,25.61
2023-09-05T17:07:48.022Z,25.58
2023-09-05T17:12:52.471Z,26.12
2023-09-05T17:17:57.373Z,25.83
2023-09-05T17:23:00.122Z,26.32
2023-09-05T17:28:05.209Z,25.83
2023-09-05T17:33:13.346Z,26.16
2023-09-05T17:38:18.047Z,25.57
2023-09-05T17:43:31.038Z,25.02
2023-09-05T17:49:05.595Z,25.90
2023-09-05T17:54:18.809Z,25.65
2023-09-05T17:59:54.904Z,23.99
2023-09-05T18:05:22.909Z,23.54
2023-09-05T18:10:33.886Z,24.49
2023-09-05T18:15:54.200Z,24.11
2023-09-05T18:21:55.715Z,24.59
2023-09-05T18:28:38.764Z,23.74
2023-09-05T18:34:41.441Z,22.92
2023-09-05T18:45:45.101Z,22.41
2023-09-05T18:50:51.787Z,24.86
2023-09-05T18:55:55.678Z,24.29
2023-09-05T19:00:58.620Z,24.63
2023-09-05T19:06:07.057Z,23.87
2023-09-05T19:11:10.813Z,24.50
2023-09-05T19:16:23.899Z,24.67
2023-09-05T19:21:32.227Z,24.66
2023-09-05T19:26:35.605Z,24.64
2023-09-05T19:31:39.469Z,24.19
2023-09-05T19:36:47.054Z,23.90
2023-09-05T19:41:53.778Z,24.57
2023-09-05T19:46:56.867Z,22.48
2023-09-05T19:58:38.309Z,23.75
2023-09-05T20:03:53.715Z,24.26
2023-09-05T20:09:10.423Z,24.38
2023-09-05T20:14:42.102Z,23.82
2023-09-05T20:20:18.382Z,23.25
2023-09-05T20:26:08.392Z,21.96
2023-09-05T20:31:29.188Z,24.08
2023-09-05T20:36:32.415Z,23.66
2023-09-05T20:41:35.609Z,23.64
2023-09-05T20:46:41.457Z,23.84
2023-09-05T20:51:44.332Z,23.67
2023-09-05T20:57:07.798Z,23.80
2023-09-05T21:02:27.654Z,21.75
2023-09-05T21:07:31.938Z,23.68
2023-09-05T21:12:40.831Z,23.68
2023-09-05T21:17:54.070Z,23.61
2023-09-05T21:22:57.343Z,23.30
2023-09-05T21:28:01.181Z,23.26
2023-09-05T21:33:05.735Z,23.11
2023-09-05T21:38:09.005Z,22.64
2023-09-05T21:50:35.327Z,22.68
2023-09-05T21:55:38.386Z,22.19
2023-09-05T22:00:43.618Z,22.10
2023-09-05T22:05:58.376Z,21.12
2023-09-05T22:11:01.584Z,21.85
2023-09-05T22:16:06.648Z,21.96
2023-09-05T22:21:11.422Z,21.81
2023-09-05T22:26:15.339Z,21.90
2023-09-05T22:31:18.340Z,20.87
2023-09-05T22:36:24.126Z,21.17
2023-09-05T22:41:26.863Z,21.77
2023-09-05T22:46:29.733Z,21.42
2023-09-05T22:51:34.058Z,21.68
2023-09-05T22:56:46.425Z,20.78
2023-09-05T23:01:49.229Z,20.56
2023-09-05T23:06:56.924Z,21.50
2023-09-05T23:11:59.701Z,21.43
2023-09-05T23:17:05.367Z,21.28
2023-09-05T23:22:10.531Z,20.30
2023-09-05T23:27:13.437Z,21.12
2023-09-05T23:32:18.390Z,20.95
2023-09-05T23:37:22.607Z,20.74
2023-09-05T23:42:27.317Z,20.38
2023-09-05T23:47:30.128Z,20.79
2023-09-05T23:52:34.691Z,21.03
2023-09-05T23:57:38.237Z,19.15
